createdAt,value
2022-10-19T00:01:21.605Z,99.90
2022-10-19T00:03:52.920Z,99.90
2022-10-19T00:06:27.135Z,99.90
2022-10-19T00:08:58.104Z,99.90
2022-10-19T00:11:26.477Z,99.90
2022-10-19T00:13:55.116Z,99.90
2022-10-19T00:16:24.009Z,99.90
2022-10-19T00:18:51.598Z,99.90
2022-10-19T00:21:19.944Z,99.90
2022-10-19T00:23:48.652Z,99.90
2022-10-19T00:26:16.235Z,99.90
2022-10-19T00:28:44.036Z,99.90
2022-10-19T00:31:14.629Z,99.90
2022-10-19T00:33:44.264Z,99.90
2022-10-19T00:36:21.968Z,99.90
2022-10-19T00:38:50.342Z,99.90
2022-10-19T00:41:19.110Z,99.90
2022-10-19T00:44:02.398Z,99.90
2022-10-19T00:46:35.691Z,99.90
2022-10-19T00:49:13.260Z,99.90
2022-10-19T00:51:44.974Z,99.90
2022-10-19T00:54:12.754Z,99.90
2022-10-19T00:56:42.877Z,99.90
2022-10-19T00:59:11.083Z,99.90
2022-10-19T01:01:38.594Z,99.90
2022-10-19T01:04:06.170Z,99.90
2022-10-19T01:06:35.185Z,99.90
2022-10-19T01:09:02.763Z,99.90
2022-10-19T01:11:39.089Z,99.90
2022-10-19T01:14:43.830Z,99.90
2022-10-19T01:17:20.355Z,99.90
2022-10-19T01:20:06.082Z,99.90
2022-10-19T01:23:01.334Z,99.90
2022-10-19T01:26:09.630Z,99.90
2022-10-19T01:29:04.054Z,99.90
2022-10-19T01:31:59.088Z,99.90
2022-10-19T01:34:42.072Z,99.90
2022-10-19T01:37:24.362Z,99.90
2022-10-19T01:40:03.979Z,99.90
2022-10-19T01:42:57.450Z,99.90
2022-10-19T01:45:38.694Z,99.90
2022-10-19T01:48:17.539Z,99.90
2022-10-19T01:51:06.385Z,99.90
2022-10-19T01:53:40.271Z,99.90
2022-10-19T01:56:09.084Z,99.90
2022-10-19T01:58:39.067Z,99.90
2022-10-19T02:03:40.224Z,99.90
2022-10-19T02:06:10.864Z,99.90
2022-10-19T02:08:46.518Z,99.90
2022-10-19T02:11:15.779Z,99.90
2022-10-19T02:13:46.289Z,99.90
2022-10-19T02:16:20.341Z,99.90
2022-10-19T02:18:51.604Z,99.90
2022-10-19T02:21:19.429Z,99.90
2022-10-19T02:23:48.354Z,99.90
2022-10-19T02:26:18.528Z,99.90
2022-10-19T02:28:46.533Z,99.90
2022-10-19T02:31:14.186Z,99.90
2022-10-19T02:33:41.654Z,99.90
2022-10-19T02:36:09.116Z,99.90
2022-10-19T02:38:36.812Z,99.90
2022-10-19T02:41:04.284Z,99.90
2022-10-19T02:43:36.251Z,99.90
2022-10-19T02:46:15.834Z,99.90
2022-10-19T02:48:44.902Z,99.90
2022-10-19T02:51:37.520Z,99.90
2022-10-19T02:54:07.415Z,99.90
2022-10-19T02:56:35.439Z,99.90
2022-10-19T02:59:03.761Z,99.90
2022-10-19T03:01:31.139Z,99.90
2022-10-19T03:03:58.622Z,99.90
2022-10-19T03:06:25.992Z,99.90
2022-10-19T03:08:53.365Z,99.90
2022-10-19T03:11:20.837Z,99.90
2022-10-19T03:16:20.723Z,99.90
2022-10-19T03:18:49.746Z,99.90
2022-10-19T03:21:18.516Z,99.90
2022-10-19T03:23:45.920Z,99.90
2022-10-19T03:26:16.322Z,99.90
2022-10-19T03:28:43.949Z,99.90
2022-10-19T03:31:11.727Z,99.90
2022-10-19T03:33:39.767Z,99.90
2022-10-19T03:36:27.219Z,99.90
2022-10-19T03:38:57.113Z,99.90
2022-10-19T03:41:27.603Z,99.90
2022-10-19T03:43:55.202Z,99.90
2022-10-19T03:46:22.948Z,99.90
2022-10-19T03:48:50.459Z,99.90
2022-10-19T03:51:20.703Z,99.90
2022-10-19T03:53:51.858Z,99.90
2022-10-19T03:56:21.458Z,99.90
2022-10-19T03:58:50.074Z,99.90
2022-10-19T04:01:29.335Z,99.90
2022-10-19T04:04:06.094Z,99.90
2022-10-19T04:06:38.705Z,99.90
2022-10-19T04:09:07.114Z,99.90
2022-10-19T04:11:35.511Z,99.90
2022-10-19T04:14:03.923Z,99.90
2022-10-19T04:16:32.206Z,99.90
2022-10-19T04:19:01.180Z,99.90
2022-10-19T04:21:34.152Z,99.90
2022-10-19T04:24:02.887Z,99.90
2022-10-19T04:26:30.508Z,99.90
2022-10-19T04:28:59.014Z,99.90
2022-10-19T04:31:27.893Z,99.90
2022-10-19T04:33:56.159Z,99.90
2022-10-19T04:36:23.993Z,99.90
2022-10-19T04:38:51.899Z,99.90
2022-10-19T04:41:21.056Z,99.90
2022-10-19T04:43:50.006Z,99.90
2022-10-19T04:46:19.379Z,99.90
2022-10-19T04:48:47.941Z,99.90
2022-10-19T04:51:16.731Z,99.90
2022-10-19T04:53:44.606Z,99.90
2022-10-19T04:56:18.679Z,99.90
2022-10-19T04:58:46.473Z,99.90
2022-10-19T05:01:17.879Z,99.90
2022-10-19T05:03:46.012Z,99.90
2022-10-19T05:06:14.649Z,99.90
2022-10-19T05:08:42.150Z,99.90
2022-10-19T05:11:14.440Z,99.90
2022-10-19T05:13:42.862Z,99.90
2022-10-19T05:16:16.271Z,99.90
2022-10-19T05:18:46.822Z,99.90
2022-10-19T05:21:15.177Z,99.90
2022-10-19T05:23:42.689Z,99.90
2022-10-19T05:26:17.462Z,99.90
2022-10-19T05:28:49.371Z,99.90
2022-10-19T05:31:20.913Z,99.90
2022-10-19T05:33:48.405Z,99.90
2022-10-19T05:36:22.066Z,99.90
2022-10-19T05:38:50.546Z,99.90
2022-10-19T05:41:18.370Z,99.90
2022-10-19T05:43:46.814Z,99.90
2022-10-19T05:46:17.950Z,99.90
2022-10-19T05:48:47.251Z,99.90
2022-10-19T05:51:18.978Z,99.90
2022-10-19T05:53:46.742Z,99.90
2022-10-19T05:56:20.245Z,99.90
2022-10-19T05:58:48.609Z,99.90
2022-10-19T06:01:18.888Z,99.90
2022-10-19T06:03:47.371Z,99.90
2022-10-19T06:06:14.782Z,99.90
2022-10-19T06:08:42.389Z,99.90
2022-10-19T06:11:15.249Z,99.90
2022-10-19T06:13:43.986Z,99.90
2022-10-19T06:16:13.449Z,99.90
2022-10-19T06:18:42.827Z,99.90
2022-10-19T06:21:18.778Z,99.90
2022-10-19T06:23:53.874Z,99.90
2022-10-19T06:26:21.745Z,99.90
2022-10-19T06:28:49.998Z,99.90
2022-10-19T06:31:18.090Z,99.90
2022-10-19T06:33:48.630Z,99.90
2022-10-19T06:36:20.508Z,99.90
2022-10-19T06:38:48.160Z,99.90
2022-10-19T06:41:15.992Z,99.90
2022-10-19T06:43:43.650Z,99.90
2022-10-19T06:46:14.933Z,99.90
2022-10-19T06:48:42.425Z,99.90
2022-10-19T06:51:10.040Z,99.90
2022-10-19T06:53:37.504Z,99.90
2022-10-19T06:56:06.390Z,99.90
2022-10-19T06:58:38.190Z,99.90
2022-10-19T07:01:10.256Z,99.90
2022-10-19T07:03:38.205Z,99.90
2022-10-19T07:06:10.837Z,99.90
2022-10-19T07:08:40.458Z,99.90
2022-10-19T07:11:11.496Z,99.90
2022-10-19T07:13:39.289Z,99.90
2022-10-19T07:16:14.584Z,99.90
2022-10-19T07:18:45.598Z,99.90
2022-10-19T07:21:15.293Z,99.90
2022-10-19T07:23:45.309Z,99.90
2022-10-19T07:26:27.834Z,99.90
2022-10-19T07:28:57.422Z,99.90
2022-10-19T07:31:26.833Z,99.90
2022-10-19T07:34:03.105Z,99.90
2022-10-19T07:36:33.372Z,99.90
2022-10-19T07:39:06.436Z,99.90
2022-10-19T07:41:37.273Z,99.90
2022-10-19T07:44:05.223Z,99.90
2022-10-19T07:46:33.815Z,99.90
2022-10-19T07:49:01.448Z,99.90
2022-10-19T07:54:01.361Z,99.90
2022-10-19T07:56:29.242Z,99.90
2022-10-19T07:58:58.754Z,99.90
2022-10-19T08:01:32.097Z,99.90
2022-10-19T08:06:48.090Z,99.90
2022-10-19T08:09:33.782Z,99.90
2022-10-19T08:12:04.266Z,99.90
2022-10-19T08:14:31.863Z,99.90
2022-10-19T08:16:59.879Z,99.90
2022-10-19T08:19:27.335Z,99.90
2022-10-19T08:21:54.732Z,99.90
2022-10-19T08:24:22.138Z,99.90
2022-10-19T08:26:51.318Z,99.90
2022-10-19T08:29:20.620Z,99.90
2022-10-19T08:31:49.273Z,99.90
2022-10-19T08:34:17.705Z,99.90
2022-10-19T08:36:46.036Z,99.90
2022-10-19T08:39:14.374Z,99.90
2022-10-19T08:42:08.378Z,99.90
2022-10-19T08:45:20.279Z,99.90
2022-10-19T08:48:15.347Z,99.90
2022-10-19T08:50:44.627Z,99.90
2022-10-19T08:53:33.492Z,99.90
2022-10-19T08:56:26.825Z,99.90
2022-10-19T08:59:08.729Z,99.90
2022-10-19T09:01:50.837Z,99.90
2022-10-19T09:04:32.135Z,99.90
2022-10-19T09:07:26.780Z,99.90
2022-10-19T09:10:14.726Z,99.90
2022-10-19T09:12:48.039Z,99.90
2022-10-19T09:15:18.908Z,99.90
2022-10-19T09:17:46.721Z,99.90
2022-10-19T09:20:24.009Z,99.90
2022-10-19T09:23:01.056Z,99.90
2022-10-19T09:25:30.832Z,99.90
2022-10-19T09:28:29.169Z,99.90
2022-10-19T09:31:02.249Z,99.90
2022-10-19T09:33:37.263Z,99.90
2022-10-19T09:36:07.212Z,99.90
2022-10-19T09:38:34.746Z,99.90
2022-10-19T09:41:18.107Z,99.90
2022-10-19T09:43:53.110Z,99.50
2022-10-19T09:46:38.780Z,99.40
2022-10-19T09:49:06.754Z,99.40
2022-10-19T09:51:47.041Z,99.10
2022-10-19T09:54:26.282Z,99.00
2022-10-19T09:56:55.978Z,98.80
2022-10-19T09:59:28.391Z,98.70
2022-10-19T10:02:18.800Z,98.50
2022-10-19T10:05:16.093Z,98.20
2022-10-19T10:07:44.288Z,98.20
2022-10-19T10:10:21.163Z,98.10
2022-10-19T10:12:48.905Z,97.80
2022-10-19T10:15:21.701Z,97.70
2022-10-19T10:17:50.218Z,97.50
2022-10-19T10:20:23.508Z,97.30
2022-10-19T10:23:23.060Z,96.90
2022-10-19T10:25:50.523Z,96.50
2022-10-19T10:28:20.848Z,96.60
2022-10-19T10:30:53.310Z,96.40
2022-10-19T10:33:40.270Z,96.30
2022-10-19T10:36:12.537Z,96.10
2022-10-19T10:38:46.994Z,96.20
2022-10-19T10:41:25.577Z,96.00
2022-10-19T10:43:58.599Z,95.60
2022-10-19T10:46:37.060Z,95.60
2022-10-19T10:49:15.879Z,95.70
2022-10-19T10:51:49.271Z,95.00
2022-10-19T10:54:25.220Z,95.00
2022-10-19T10:57:16.776Z,94.70
2022-10-19T10:59:59.663Z,94.40
2022-10-19T11:02:46.285Z,94.30
2022-10-19T11:05:37.411Z,94.20
2022-10-19T11:08:15.965Z,94.20
2022-10-19T11:10:57.488Z,94.50
2022-10-19T11:13:30.368Z,94.30
2022-10-19T11:16:02.721Z,94.30
2022-10-19T11:18:42.281Z,94.40
2022-10-19T11:21:31.023Z,94.20
2022-10-19T11:24:20.144Z,94.00
2022-10-19T11:27:07.960Z,94.10
2022-10-19T11:29:55.398Z,94.10
2022-10-19T11:33:00.267Z,93.90
2022-10-19T11:35:33.644Z,93.80
2022-10-19T11:38:29.827Z,93.80
2022-10-19T11:41:17.386Z,93.40
2022-10-19T11:43:54.820Z,93.00
2022-10-19T11:46:40.750Z,92.50
2022-10-19T11:49:33.047Z,92.10
2022-10-19T11:52:24.214Z,91.70
2022-10-19T11:55:16.297Z,91.20
2022-10-19T11:57:58.587Z,90.80
2022-10-19T12:00:39.053Z,90.60
2022-10-19T12:03:54.465Z,90.30
2022-10-19T12:06:59.672Z,87.70
2022-10-19T12:09:48.142Z,86.10
2022-10-19T12:12:21.256Z,85.20
2022-10-19T12:14:54.545Z,84.70
2022-10-19T12:17:30.800Z,84.40
2022-10-19T12:20:17.509Z,84.00
2022-10-19T12:22:49.360Z,83.80
2022-10-19T12:25:19.100Z,83.80
2022-10-19T12:27:49.089Z,84.00
2022-10-19T12:30:22.155Z,83.60
2022-10-19T12:33:03.498Z,83.70
2022-10-19T12:35:55.905Z,83.40
2022-10-19T12:38:40.868Z,83.60
2022-10-19T12:41:36.557Z,83.30
2022-10-19T12:44:31.254Z,82.70
2022-10-19T12:47:09.871Z,82.00
2022-10-19T12:49:43.850Z,81.40
2022-10-19T12:52:12.697Z,81.10
2022-10-19T12:54:42.087Z,80.70
2022-10-19T12:57:28.138Z,79.70
2022-10-19T13:00:18.816Z,79.10
2022-10-19T13:02:48.560Z,78.60
2022-10-19T13:05:24.292Z,78.50
2022-10-19T13:10:22.759Z,77.70
2022-10-19T13:12:50.640Z,77.40
2022-10-19T13:15:36.138Z,78.10
2022-10-19T13:18:16.580Z,76.60
2022-10-19T13:20:53.823Z,75.90
2022-10-19T13:23:21.134Z,74.90
2022-10-19T13:26:27.252Z,74.90
2022-10-19T13:28:56.057Z,73.70
2022-10-19T13:31:27.071Z,74.00
2022-10-19T13:33:55.516Z,73.30
2022-10-19T13:36:24.883Z,73.10
2022-10-19T13:39:05.776Z,73.00
2022-10-19T13:41:39.049Z,72.60
2022-10-19T13:44:12.399Z,72.10
2022-10-19T13:50:20.607Z,72.10
2022-10-19T13:52:48.015Z,71.80
2022-10-19T13:55:22.024Z,71.50
2022-10-19T13:58:34.879Z,71.10
2022-10-19T14:01:55.788Z,71.20
2022-10-19T14:04:43.358Z,71.60
2022-10-19T14:07:35.614Z,72.50
2022-10-19T14:10:08.315Z,71.00
2022-10-19T14:12:40.829Z,70.70
2022-10-19T14:15:27.387Z,70.50
2022-10-19T14:17:56.049Z,70.10
2022-10-19T14:20:28.690Z,70.40
2022-10-19T14:22:56.266Z,70.00
2022-10-19T14:25:27.280Z,70.10
2022-10-19T14:28:04.722Z,69.90
2022-10-19T14:30:35.605Z,69.50
2022-10-19T14:33:09.567Z,70.40
2022-10-19T14:35:39.450Z,69.30
2022-10-19T14:38:08.915Z,69.40
2022-10-19T14:40:41.702Z,69.30
2022-10-19T14:43:22.633Z,69.20
2022-10-19T14:46:08.303Z,69.50
2022-10-19T14:48:38.137Z,70.20
2022-10-19T14:51:14.367Z,70.00
2022-10-19T14:53:57.253Z,71.00
2022-10-19T14:56:36.738Z,70.30
2022-10-19T14:59:14.510Z,70.50
2022-10-19T15:01:50.052Z,70.90
2022-10-19T15:04:21.547Z,71.20
2022-10-19T15:06:50.047Z,71.80
2022-10-19T15:09:37.273Z,72.30
2022-10-19T15:12:18.375Z,73.00
2022-10-19T15:14:47.725Z,73.30
2022-10-19T15:17:30.729Z,73.60
2022-10-19T15:20:02.818Z,74.20
2022-10-19T15:22:32.009Z,75.40
2022-10-19T15:25:06.909Z,75.00
2022-10-19T15:27:37.373Z,75.60
2022-10-19T15:30:17.290Z,76.30
2022-10-19T15:32:46.506Z,76.80
2022-10-19T15:35:32.826Z,77.20
2022-10-19T15:38:23.052Z,78.20
2022-10-19T15:40:57.534Z,78.80
2022-10-19T15:43:34.932Z,79.30
2022-10-19T15:46:20.153Z,80.00
2022-10-19T15:48:52.502Z,80.60
2022-10-19T15:51:25.516Z,81.10
2022-10-19T15:53:54.052Z,81.70
2022-10-19T15:56:23.136Z,82.20
2022-10-19T15:58:51.956Z,82.70
2022-10-19T16:01:22.679Z,83.20
2022-10-19T16:03:50.225Z,83.80
2022-10-19T16:06:18.657Z,83.40
2022-10-19T16:08:46.619Z,84.40
2022-10-19T16:11:19.653Z,85.10
2022-10-19T16:13:47.379Z,85.70
2022-10-19T16:16:26.982Z,86.20
2022-10-19T16:18:54.913Z,86.90
2022-10-19T16:21:26.261Z,87.30
2022-10-19T16:23:53.809Z,87.90
2022-10-19T16:26:22.072Z,88.50
2022-10-19T16:28:49.485Z,89.00
2022-10-19T16:31:17.638Z,89.50
2022-10-19T16:33:45.076Z,90.00
2022-10-19T16:36:13.109Z,90.20
2022-10-19T16:38:40.623Z,90.40
2022-10-19T16:41:10.269Z,91.00
2022-10-19T16:43:38.301Z,90.90
2022-10-19T16:46:06.301Z,91.00
2022-10-19T16:48:34.194Z,91.20
2022-10-19T16:51:07.987Z,91.30
2022-10-19T16:53:36.335Z,91.60
2022-10-19T16:56:05.677Z,91.70
2022-10-19T16:58:33.041Z,91.90
2022-10-19T17:01:10.355Z,92.10
2022-10-19T17:03:37.943Z,92.30
2022-10-19T17:06:07.637Z,92.40
2022-10-19T17:08:36.958Z,92.60
2022-10-19T17:11:12.843Z,92.80
2022-10-19T17:13:40.910Z,93.00
2022-10-19T17:16:09.469Z,93.20
2022-10-19T17:18:37.926Z,93.30
2022-10-19T17:21:10.617Z,93.50
2022-10-19T17:23:38.325Z,93.60
2022-10-19T17:26:07.102Z,93.70
2022-10-19T17:28:36.114Z,93.90
2022-10-19T17:31:08.633Z,94.00
2022-10-19T17:33:37.378Z,94.30
2022-10-19T17:36:10.876Z,94.30
2022-10-19T17:38:39.427Z,94.50
2022-10-19T17:41:09.605Z,94.60
2022-10-19T17:43:38.970Z,94.70
2022-10-19T17:46:08.681Z,94.80
2022-10-19T17:48:37.745Z,95.00
2022-10-19T17:51:07.863Z,95.10
2022-10-19T17:53:35.627Z,95.20
2022-10-19T17:56:05.526Z,95.30
2022-10-19T17:58:39.097Z,95.50
2022-10-19T18:01:08.605Z,95.60
2022-10-19T18:03:38.849Z,95.70
2022-10-19T18:06:34.139Z,95.90
2022-10-19T18:09:05.585Z,96.10
2022-10-19T18:11:37.281Z,96.10
2022-10-19T18:14:06.289Z,96.30
2022-10-19T18:16:36.667Z,96.40
2022-10-19T18:19:04.849Z,96.50
2022-10-19T18:21:35.424Z,96.60
2022-10-19T18:24:03.521Z,96.80
2022-10-19T18:26:35.537Z,96.80
2022-10-19T18:29:10.667Z,97.00
2022-10-19T18:31:39.476Z,97.20
2022-10-19T18:34:08.735Z,97.20
2022-10-19T18:36:36.205Z,97.30
2022-10-19T18:39:05.479Z,97.40
2022-10-19T18:41:33.352Z,97.50
2022-10-19T18:44:05.086Z,97.60
2022-10-19T18:46:34.715Z,97.70
2022-10-19T18:49:04.016Z,97.80
2022-10-19T18:51:32.016Z,97.80
2022-10-19T18:53:59.866Z,97.90
2022-10-19T18:56:29.273Z,98.00
2022-10-19T18:58:56.914Z,98.00
2022-10-19T19:01:26.937Z,98.10
2022-10-19T19:03:57.341Z,98.10
2022-10-19T19:06:28.919Z,98.20
2022-10-19T19:09:03.231Z,98.60
2022-10-19T19:11:36.000Z,98.30
2022-10-19T19:14:12.079Z,98.30
2022-10-19T19:16:40.810Z,98.40
2022-10-19T19:19:10.577Z,98.40
2022-10-19T19:21:40.977Z,98.50
2022-10-19T19:24:08.586Z,98.60
2022-10-19T19:26:39.095Z,98.60
2022-10-19T19:29:06.936Z,98.70
2022-10-19T19:31:34.912Z,98.70
2022-10-19T19:34:03.108Z,98.80
2022-10-19T19:36:30.597Z,98.80
2022-10-19T19:38:59.087Z,98.90
2022-10-19T19:41:27.634Z,99.00
2022-10-19T19:43:57.911Z,99.00
2022-10-19T19:46:26.327Z,99.10
2022-10-19T19:49:00.101Z,99.10
2022-10-19T19:51:28.360Z,99.30
2022-10-19T19:53:56.485Z,99.20
2022-10-19T19:56:24.500Z,99.30
2022-10-19T19:58:55.936Z,99.30
2022-10-19T20:01:24.163Z,99.40
2022-10-19T20:03:51.967Z,99.40
2022-10-19T20:06:23.504Z,99.40
2022-10-19T20:08:55.203Z,99.50
2022-10-19T20:11:24.566Z,99.50
2022-10-19T20:13:52.299Z,99.50
2022-10-19T20:16:29.079Z,99.50
2022-10-19T20:19:07.213Z,99.60
2022-10-19T20:21:34.854Z,99.60
2022-10-19T20:24:03.017Z,99.60
2022-10-19T20:26:30.501Z,99.60
2022-10-19T20:28:58.203Z,99.60
2022-10-19T20:31:25.937Z,99.70
2022-10-19T20:33:53.420Z,99.70
2022-10-19T20:36:25.912Z,99.70
2022-10-19T20:38:57.893Z,99.80
2022-10-19T20:41:27.753Z,99.80
2022-10-19T20:43:55.708Z,99.80
2022-10-19T20:46:25.965Z,99.80
2022-10-19T20:48:54.736Z,99.90
2022-10-19T20:51:30.571Z,99.80
2022-10-19T20:54:01.684Z,99.90
2022-10-19T20:56:32.610Z,99.90
2022-10-19T20:59:05.488Z,99.90
2022-10-19T21:01:34.596Z,99.90
2022-10-19T21:04:04.587Z,99.90
2022-10-19T21:06:34.906Z,99.90
2022-10-19T21:09:02.434Z,99.90
2022-10-19T21:11:32.701Z,99.90
2022-10-19T21:14:09.312Z,99.90
2022-10-19T21:16:37.818Z,99.90
2022-10-19T21:19:08.754Z,99.90
2022-10-19T21:21:37.013Z,99.90
2022-10-19T21:24:16.753Z,99.90
2022-10-19T21:26:44.522Z,99.90
2022-10-19T21:29:13.259Z,99.90
2022-10-19T21:31:47.989Z,99.90
2022-10-19T21:34:19.881Z,99.90
2022-10-19T21:36:47.845Z,99.90
2022-10-19T21:39:15.386Z,99.90
2022-10-19T21:41:42.802Z,99.90
2022-10-19T21:44:10.724Z,99.90
2022-10-19T21:46:38.214Z,99.90
2022-10-19T21:49:05.692Z,99.90
2022-10-19T21:51:44.025Z,99.90
2022-10-19T21:54:17.370Z,99.90
2022-10-19T21:56:45.827Z,99.90
2022-10-19T21:59:14.568Z,99.90
2022-10-19T22:01:42.280Z,99.90
2022-10-19T22:04:18.332Z,99.90
2022-10-19T22:06:46.404Z,99.90
2022-10-19T22:09:17.555Z,99.90
2022-10-19T22:11:45.430Z,99.90
2022-10-19T22:14:14.674Z,99.90
2022-10-19T22:16:42.799Z,99.90
2022-10-19T22:19:10.913Z,99.90
2022-10-19T22:24:14.188Z,99.90
2022-10-19T22:26:47.944Z,99.90
2022-10-19T22:29:15.393Z,99.90
2022-10-19T22:31:43.314Z,99.90
2022-10-19T22:34:15.902Z,99.90
2022-10-19T22:36:44.387Z,99.90
2022-10-19T22:39:12.461Z,99.90
2022-10-19T22:42:18.871Z,99.90
2022-10-19T22:44:46.257Z,99.90
2022-10-19T22:47:14.454Z,99.90
2022-10-19T22:49:42.278Z,99.90
2022-10-19T22:52:09.891Z,99.90
2022-10-19T22:54:37.458Z,99.90
2022-10-19T22:57:07.473Z,99.90
2022-10-19T22:59:35.032Z,99.90
2022-10-19T23:02:02.621Z,99.90
2022-10-19T23:04:30.185Z,99.90
2022-10-19T23:06:57.670Z,99.90
2022-10-19T23:09:25.247Z,99.90
2022-10-19T23:11:52.749Z,99.90
2022-10-19T23:14:20.144Z,99.90
2022-10-19T23:16:47.931Z,99.90
2022-10-19T23:19:15.438Z,99.90
2022-10-19T23:21:42.800Z,99.90
2022-10-19T23:24:10.155Z,99.90
2022-10-19T23:26:37.741Z,99.90
2022-10-19T23:29:05.153Z,99.90
2022-10-19T23:31:33.491Z,99.90
2022-10-19T23:34:01.052Z,99.90
2022-10-19T23:36:29.685Z,99.90
2022-10-19T23:38:58.460Z,99.90
2022-10-19T23:41:26.083Z,99.90
2022-10-19T23:43:53.617Z,99.90
2022-10-19T23:46:21.061Z,99.90
2022-10-19T23:48:48.523Z,99.90
2022-10-19T23:51:18.323Z,99.90
2022-10-19T23:53:47.668Z,99.90
2022-10-19T23:56:17.173Z,99.90
2022-10-19T23:58:45.573Z,99.90
